Time;durP1;ratioP1;P1;durP2;ratioP2;P2;SDS_P1;SDS_P2;PMS_P1;PMS_P2;Temp;Humidity;BMP_temperature;BMP_pressure;BME280_temperature;BME280_humidity;BME280_pressure;Samples;Min_cycle;Max_cycle;Signal;HPM_P1;HPM_P2
2022/09/30 00:00:18;;;;;;;;;;;;;;;22.07;47.42;100368.02;104498;1309;62136;-83
2022/09/30 00:02:47;;;;;;;;;;;;;;;22.07;47.42;100374.83;104511;1308;61982;-83
2022/09/30 00:05:13;;;;;;;;;;;;;;;22.07;47.48;100378.00;104629;1309;62107;-84
2022/09/30 00:07:38;;;;;;;;;;;;;;;22.07;47.37;100384.48;104524;1309;62134;-86
2022/09/30 00:10:06;;;;;;;;;;;;;;;22.07;47.42;100384.13;104513;1309;62223;-83
2022/09/30 00:12:31;;;;;;;;;;;;;;;22.07;47.35;100384.70;104511;1309;63880;-84
2022/09/30 00:15:20;;;;;;;;;;;;;;;22.07;47.44;100388.08;104447;1309;62258;-86
2022/09/30 00:17:46;;;;;;;;;;;;;;;22.07;47.42;100385.58;104230;1315;73870;-80
2022/09/30 00:20:11;;;;;;;;;;;;;;;22.07;47.49;100379.33;104294;1315;62111;-85
2022/09/30 00:22:37;;;;;;;;;;;;;;;22.06;47.40;100378.08;104311;1315;62123;-85
2022/09/30 00:25:11;;;;;;;;;;;;;;;22.07;47.56;100380.77;104182;1315;62025;-84
2022/09/30 00:27:37;;;;;;;;;;;;;;;22.06;47.33;100383.81;104189;1314;62089;-84
2022/09/30 00:30:03;;;;;;;;;;;;;;;22.07;47.34;100391.65;104236;1315;62051;-89
2022/09/30 00:32:29;;;;;;;;;;;;;;;22.07;47.43;100390.45;104239;1315;62114;-87
2022/09/30 00:34:54;;;;;;;;;;;;;;;22.07;47.48;100393.13;104205;1315;62806;-85
2022/09/30 00:37:20;;;;;;;;;;;;;;;22.06;47.42;100398.55;104212;1314;62143;-86
2022/09/30 00:39:46;;;;;;;;;;;;;;;22.06;47.36;100395.50;104320;1315;73618;-81
2022/09/30 00:42:13;;;;;;;;;;;;;;;22.06;47.31;100399.07;104300;1314;62075;-85
2022/09/30 00:44:49;;;;;;;;;;;;;;;22.06;47.42;100396.94;104311;1315;62199;-86
2022/09/30 00:47:50;;;;;;;;;;;;;;;22.06;47.46;100391.38;104325;1314;62231;-85
2022/09/30 00:50:16;;;;;;;;;;;;;;;22.05;47.48;100395.36;103614;1319;72818;-85
2022/09/30 00:52:42;;;;;;;;;;;;;;;22.06;47.44;100391.77;103398;1320;62454;-87
2022/09/30 00:55:09;;;;;;;;;;;;;;;22.05;47.48;100390.55;103642;1317;62300;-85
2022/09/30 00:57:35;;;;;;;;;;;;;;;22.05;47.47;100391.63;104007;1317;62145;-89
2022/09/30 01:00:01;;;;;;;;;;;;;;;22.05;47.36;100391.11;104221;1314;62242;-86
2022/09/30 01:02:26;;;;;;;;;;;;;;;22.05;47.32;100388.39;103986;1316;62312;-84
2022/09/30 01:04:53;;;;;;;;;;;;;;;22.05;47.39;100384.66;103902;1317;62098;-89
2022/09/30 01:07:19;;;;;;;;;;;;;;;22.05;47.35;100382.34;104236;1316;61811;-84
2022/09/30 01:09:45;;;;;;;;;;;;;;;22.05;47.47;100378.58;104213;1316;62209;-84
2022/09/30 01:12:14;;;;;;;;;;;;;;;22.05;47.33;100381.63;104198;1314;64095;-84
2022/09/30 01:14:40;;;;;;;;;;;;;;;22.04;47.36;100382.39;104167;1314;62156;-86
2022/09/30 01:17:24;;;;;;;;;;;;;;;22.04;47.43;100381.86;104178;1316;62118;-81
2022/09/30 01:19:57;;;;;;;;;;;;;;;22.05;47.48;100381.49;104210;1316;72652;-83
2022/09/30 01:22:29;;;;;;;;;;;;;;;22.05;47.32;100383.11;104163;1316;76531;-83
2022/09/30 01:25:00;;;;;;;;;;;;;;;22.04;47.29;100385.98;104397;1308;61988;-84
2022/09/30 01:27:41;;;;;;;;;;;;;;;22.04;47.36;100385.62;104634;1309;61965;-87
2022/09/30 01:30:25;;;;;;;;;;;;;;;22.04;47.45;100387.77;104562;1309;74112;-85
2022/09/30 01:32:58;;;;;;;;;;;;;;;22.04;47.41;100388.16;104625;1309;75947;-86
2022/09/30 01:35:24;;;;;;;;;;;;;;;22.04;47.41;100395.31;104455;1309;62094;-83
2022/09/30 01:38:12;;;;;;;;;;;;;;;22.04;47.44;100391.94;104576;1309;62212;-83
2022/09/30 01:40:37;;;;;;;;;;;;;;;22.04;47.37;100387.27;104641;1308;72781;-84
2022/09/30 01:43:10;;;;;;;;;;;;;;;22.04;47.40;100392.81;104610;1309;62082;-84
2022/09/30 01:45:47;;;;;;;;;;;;;;;22.04;47.43;100398.39;104542;1308;63182;-85
2022/09/30 01:48:15;;;;;;;;;;;;;;;22.04;47.40;100396.23;104559;1308;62096;-84
2022/09/30 01:50:49;;;;;;;;;;;;;;;22.04;47.41;100395.90;104654;1307;71649;-85
2022/09/30 01:53:18;;;;;;;;;;;;;;;22.04;47.42;100397.46;104668;1309;76412;-84
2022/09/30 01:55:55;;;;;;;;;;;;;;;22.03;47.26;100402.71;104509;1308;62125;-86
2022/09/30 01:58:29;;;;;;;;;;;;;;;22.03;47.31;100401.64;104546;1308;62060;-83
2022/09/30 02:00:55;;;;;;;;;;;;;;;22.04;47.45;100404.48;104643;1308;71710;-84
2022/09/30 02:03:30;;;;;;;;;;;;;;;22.04;47.34;100404.80;104556;1308;62201;-84
2022/09/30 02:05:57;;;;;;;;;;;;;;;22.04;47.27;100405.55;104545;1309;61971;-83
2022/09/30 02:08:24;;;;;;;;;;;;;;;22.04;47.31;100404.30;104663;1308;62172;-85
2022/09/30 02:11:04;;;;;;;;;;;;;;;22.04;47.47;100407.53;104472;1308;72833;-83
2022/09/30 02:13:34;;;;;;;;;;;;;;;22.04;47.49;100410.20;104621;1307;75268;-84
2022/09/30 02:16:01;;;;;;;;;;;;;;;22.04;47.38;100412.00;104624;1309;62174;-84
2022/09/30 02:18:56;;;;;;;;;;;;;;;22.03;47.24;100406.48;104470;1308;62058;-86
2022/09/30 02:21:30;;;;;;;;;;;;;;;22.03;47.28;100407.18;104303;1314;72921;-84
2022/09/30 02:23:59;;;;;;;;;;;;;;;22.04;47.23;100408.97;103874;1314;76613;-84
2022/09/30 02:26:29;;;;;;;;;;;;;;;22.03;47.22;100407.20;104300;1313;62433;-85
2022/09/30 02:28:58;;;;;;;;;;;;;;;22.04;47.29;100409.70;104260;1315;62115;-86
2022/09/30 02:31:24;;;;;;;;;;;;;;;22.04;47.28;100409.31;104131;1314;71818;-84
2022/09/30 02:33:51;;;;;;;;;;;;;;;22.03;47.29;100412.92;104304;1315;62114;-83
2022/09/30 02:36:18;;;;;;;;;;;;;;;22.04;47.29;100415.79;103893;1314;61972;-84
2022/09/30 02:38:45;;;;;;;;;;;;;;;22.03;47.23;100418.33;104260;1315;61978;-85
2022/09/30 02:41:20;;;;;;;;;;;;;;;22.03;47.28;100425.83;104222;1315;62134;-84
2022/09/30 02:43:46;;;;;;;;;;;;;;;22.03;47.34;100431.60;104291;1314;76362;-83
2022/09/30 02:46:14;;;;;;;;;;;;;;;22.03;47.35;100429.98;104233;1315;60132;-86
2022/09/30 02:48:46;;;;;;;;;;;;;;;22.03;47.28;100430.55;104326;1315;62103;-85
2022/09/30 02:51:21;;;;;;;;;;;;;;;22.03;47.35;100435.36;104323;1315;73903;-84
2022/09/30 02:53:46;;;;;;;;;;;;;;;22.03;47.22;100437.53;104124;1314;76632;-85
2022/09/30 02:56:21;;;;;;;;;;;;;;;22.02;47.34;100439.17;104330;1315;62401;-84
2022/09/30 02:58:47;;;;;;;;;;;;;;;22.02;47.31;100441.16;104401;1309;62035;-83
2022/09/30 03:01:13;;;;;;;;;;;;;;;22.02;47.27;100441.73;104453;1308;62232;-85
2022/09/30 03:03:41;;;;;;;;;;;;;;;22.02;47.25;100445.11;104470;1309;62191;-84
2022/09/30 03:06:06;;;;;;;;;;;;;;;22.02;47.29;100445.29;104636;1309;62177;-86
2022/09/30 03:08:35;;;;;;;;;;;;;;;22.02;47.21;100447.29;104519;1309;62089;-85
2022/09/30 03:11:01;;;;;;;;;;;;;;;22.02;47.29;100448.38;104446;1309;72916;-85
2022/09/30 03:13:42;;;;;;;;;;;;;;;22.02;47.13;100450.89;104630;1309;60830;-82
2022/09/30 03:16:12;;;;;;;;;;;;;;;22.02;47.20;100449.63;104645;1308;62201;-82
2022/09/30 03:18:44;;;;;;;;;;;;;;;22.02;47.19;100450.15;104521;1309;62451;-84
2022/09/30 03:21:10;;;;;;;;;;;;;;;22.01;47.28;100446.96;104538;1309;73920;-88
2022/09/30 03:23:49;;;;;;;;;;;;;;;22.01;47.16;100444.98;104642;1309;76581;-84
2022/09/30 03:26:34;;;;;;;;;;;;;;;22.02;47.22;100444.27;104558;1308;62100;-83
2022/09/30 03:29:05;;;;;;;;;;;;;;;22.01;47.29;100448.09;104614;1309;62095;-85
2022/09/30 03:31:31;;;;;;;;;;;;;;;22.01;47.27;100459.70;104617;1309;72878;-85
2022/09/30 03:34:00;;;;;;;;;;;;;;;22.01;47.23;100468.11;104491;1308;62562;-85
2022/09/30 03:36:33;;;;;;;;;;;;;;;22.01;47.14;100471.33;104511;1309;62053;-83
2022/09/30 03:39:12;;;;;;;;;;;;;;;22.01;47.17;100475.83;104452;1308;62030;-85
2022/09/30 03:41:53;;;;;;;;;;;;;;;22.01;47.17;100476.73;104476;1308;72634;-82
2022/09/30 03:44:39;;;;;;;;;;;;;;;22.01;47.32;100473.48;104527;1308;75690;-84
2022/09/30 03:47:09;;;;;;;;;;;;;;;22.01;47.20;100472.96;104606;1309;61968;-84
2022/09/30 03:49:54;;;;;;;;;;;;;;;22.02;47.22;100472.40;104502;1309;62012;-84
2022/09/30 03:52:20;;;;;;;;;;;;;;;22.01;47.17;100470.60;104488;1308;74033;-84
2022/09/30 03:54:57;;;;;;;;;;;;;;;22.01;47.31;100467.39;104304;1308;62088;-84
2022/09/30 03:57:27;;;;;;;;;;;;;;;22.01;47.24;100463.67;104409;1307;62389;-81
2022/09/30 03:59:53;;;;;;;;;;;;;;;22.00;47.23;100472.85;104609;1308;61993;-85
2022/09/30 04:02:19;;;;;;;;;;;;;;;22.00;47.12;100477.92;104362;1309;62073;-84
2022/09/30 04:04:44;;;;;;;;;;;;;;;21.99;47.35;100474.94;104554;1309;62089;-85
2022/09/30 04:07:10;;;;;;;;;;;;;;;21.97;47.13;100474.55;104528;1309;62104;-85
2022/09/30 04:09:37;;;;;;;;;;;;;;;21.96;47.31;100477.92;104544;1309;62177;-84
2022/09/30 04:12:03;;;;;;;;;;;;;;;21.93;47.25;100477.88;104488;1309;62133;-88
2022/09/30 04:14:28;;;;;;;;;;;;;;;21.91;47.25;100479.84;104666;1309;62111;-84
2022/09/30 04:16:54;;;;;;;;;;;;;;;21.89;47.17;100484.48;104494;1309;75553;-85
2022/09/30 04:19:19;;;;;;;;;;;;;;;21.87;47.19;100492.02;104514;1311;62101;-83
2022/09/30 04:21:46;;;;;;;;;;;;;;;21.86;47.27;100499.64;104406;1311;62222;-84
2022/09/30 04:24:12;;;;;;;;;;;;;;;21.85;47.21;100500.23;104668;1308;62104;-83
2022/09/30 04:26:37;;;;;;;;;;;;;;;21.85;47.28;100497.75;104750;1308;60083;-85
2022/09/30 04:29:03;;;;;;;;;;;;;;;21.85;47.32;100499.34;104510;1308;62086;-85
2022/09/30 04:31:28;;;;;;;;;;;;;;;21.85;47.35;100496.84;104549;1308;61996;-83
2022/09/30 04:33:55;;;;;;;;;;;;;;;21.84;47.36;100495.81;104375;1309;62244;-85
2022/09/30 04:36:21;;;;;;;;;;;;;;;21.84;47.38;100495.48;104311;1310;61949;-84
2022/09/30 04:38:47;;;;;;;;;;;;;;;21.83;47.32;100502.20;104319;1309;62568;-84
2022/09/30 04:41:14;;;;;;;;;;;;;;;21.80;47.36;100500.77;104407;1309;62146;-83
2022/09/30 04:43:46;;;;;;;;;;;;;;;21.76;47.20;100496.63;104435;1309;62489;-84
2022/09/30 04:46:16;;;;;;;;;;;;;;;21.71;47.12;100502.53;104280;1308;72715;-83
2022/09/30 04:48:45;;;;;;;;;;;;;;;21.67;47.29;100503.60;104257;1308;75535;-84
2022/09/30 04:51:18;;;;;;;;;;;;;;;21.61;47.33;100501.96;104292;1309;62111;-84
2022/09/30 04:53:44;;;;;;;;;;;;;;;21.54;47.30;100498.33;104245;1308;62050;-83
2022/09/30 04:56:09;;;;;;;;;;;;;;;21.49;47.48;100497.26;103986;1308;62142;-84
2022/09/30 04:58:36;;;;;;;;;;;;;;;21.45;47.47;100497.78;104266;1308;60549;-83
2022/09/30 05:01:02;;;;;;;;;;;;;;;21.41;47.56;100500.21;104298;1309;62133;-83
2022/09/30 05:03:28;;;;;;;;;;;;;;;21.41;47.62;100500.92;104229;1309;62177;-84
2022/09/30 05:05:53;;;;;;;;;;;;;;;21.43;47.83;100498.29;104405;1306;60737;-82
2022/09/30 05:08:19;;;;;;;;;;;;;;;21.47;47.83;100499.42;104277;1308;62125;-83
2022/09/30 05:10:51;;;;;;;;;;;;;;;21.51;47.88;100497.11;104344;1308;74436;-83
2022/09/30 05:13:17;;;;;;;;;;;;;;;21.56;47.89;100500.00;104275;1308;62056;-83
2022/09/30 05:15:42;;;;;;;;;;;;;;;21.60;47.83;100503.45;104276;1308;62050;-83
2022/09/30 05:18:08;;;;;;;;;;;;;;;21.63;47.85;100503.37;104360;1307;59867;-83
2022/09/30 05:20:34;;;;;;;;;;;;;;;21.65;47.82;100508.38;104366;1308;62128;-84
2022/09/30 05:23:00;;;;;;;;;;;;;;;21.67;47.80;100512.17;104289;1307;62065;-84
2022/09/30 05:25:25;;;;;;;;;;;;;;;21.70;47.78;100519.33;104323;1309;60720;-82
2022/09/30 05:27:51;;;;;;;;;;;;;;;21.71;47.74;100525.69;104239;1310;62124;-83
2022/09/30 05:30:16;;;;;;;;;;;;;;;21.72;47.75;100529.16;104271;1311;60329;-84
2022/09/30 05:32:42;;;;;;;;;;;;;;;21.73;47.67;100532.83;104319;1309;62557;-82
2022/09/30 05:35:08;;;;;;;;;;;;;;;21.75;47.68;100532.73;104308;1311;64265;-84
2022/09/30 05:37:33;;;;;;;;;;;;;;;21.76;47.69;100529.94;104330;1308;60890;-84
2022/09/30 05:39:59;;;;;;;;;;;;;;;21.77;47.59;100524.33;104197;1311;63715;-84
2022/09/30 05:42:28;;;;;;;;;;;;;;;21.78;47.52;100526.25;104233;1309;61963;-84
2022/09/30 05:44:56;;;;;;;;;;;;;;;21.78;47.61;100524.08;104247;1309;75545;-85
2022/09/30 05:47:22;;;;;;;;;;;;;;;21.79;47.57;100529.38;104215;1308;60657;-83
2022/09/30 05:49:48;;;;;;;;;;;;;;;21.80;47.53;100534.35;104232;1311;62117;-82
2022/09/30 05:52:16;;;;;;;;;;;;;;;21.80;47.62;100536.45;104231;1311;62144;-82
2022/09/30 05:54:42;;;;;;;;;;;;;;;21.78;47.58;100540.17;104212;1310;60332;-84
2022/09/30 05:57:07;;;;;;;;;;;;;;;21.75;47.53;100541.14;104237;1311;62149;-85
2022/09/30 05:59:33;;;;;;;;;;;;;;;21.72;47.49;100543.88;104201;1309;63007;-85
2022/09/30 06:01:58;;;;;;;;;;;;;;;21.71;47.60;100542.00;104275;1309;61581;-84
2022/09/30 06:04:24;;;;;;;;;;;;;;;21.70;47.54;100547.93;104257;1311;60140;-83
2022/09/30 06:06:49;;;;;;;;;;;;;;;21.71;47.67;100552.89;104121;1310;62217;-83
2022/09/30 06:09:15;;;;;;;;;;;;;;;21.73;47.78;100560.39;104291;1311;62084;-85
2022/09/30 06:11:41;;;;;;;;;;;;;;;21.76;47.82;100563.93;104168;1308;62256;-85
2022/09/30 06:14:07;;;;;;;;;;;;;;;21.78;47.66;100567.95;104281;1308;62149;-84
2022/09/30 06:16:32;;;;;;;;;;;;;;;21.80;47.69;100569.61;104248;1311;62301;-84
2022/09/30 06:18:58;;;;;;;;;;;;;;;21.81;47.88;100572.35;104234;1311;62214;-83
2022/09/30 06:21:24;;;;;;;;;;;;;;;21.82;47.73;100578.90;104247;1308;62002;-83
2022/09/30 06:23:49;;;;;;;;;;;;;;;21.83;47.72;100585.10;104231;1311;62066;-85
2022/09/30 06:26:15;;;;;;;;;;;;;;;21.83;47.70;100587.95;104242;1311;61869;-82
2022/09/30 06:28:40;;;;;;;;;;;;;;;21.84;47.72;100585.77;104253;1310;62103;-85
2022/09/30 06:31:06;;;;;;;;;;;;;;;21.85;47.74;100587.45;104136;1311;62102;-84
2022/09/30 06:33:32;;;;;;;;;;;;;;;21.85;47.62;100593.34;104342;1309;62097;-84
2022/09/30 06:35:57;;;;;;;;;;;;;;;21.87;47.71;100601.13;104253;1311;62041;-84
2022/09/30 06:38:23;;;;;;;;;;;;;;;21.87;47.70;100606.97;104179;1310;62052;-85
2022/09/30 06:40:49;;;;;;;;;;;;;;;21.89;47.65;100615.12;104210;1310;62144;-82
2022/09/30 06:43:15;;;;;;;;;;;;;;;21.88;47.76;100623.91;104428;1311;62101;-84
2022/09/30 06:45:41;;;;;;;;;;;;;;;21.89;47.60;100626.57;104588;1310;60385;-85
2022/09/30 06:48:09;;;;;;;;;;;;;;;21.89;47.66;100627.30;104189;1311;62187;-84
2022/09/30 06:50:34;;;;;;;;;;;;;;;21.89;47.72;100625.47;104142;1311;60491;-84
2022/09/30 06:53:01;;;;;;;;;;;;;;;21.90;47.66;100628.45;104315;1309;60815;-84
2022/09/30 06:55:27;;;;;;;;;;;;;;;21.92;47.72;100627.80;104494;1309;62142;-83
2022/09/30 06:57:53;;;;;;;;;;;;;;;21.95;47.82;100632.73;104466;1311;60515;-85
2022/09/30 07:00:18;;;;;;;;;;;;;;;21.97;47.94;100631.66;104245;1311;62163;-83
2022/09/30 07:02:44;;;;;;;;;;;;;;;21.97;47.87;100632.20;104260;1312;75653;-84
2022/09/30 07:05:09;;;;;;;;;;;;;;;21.97;47.91;100641.00;104269;1311;62151;-84
2022/09/30 07:07:35;;;;;;;;;;;;;;;21.97;47.85;100641.58;104192;1311;60729;-86
2022/09/30 07:10:01;;;;;;;;;;;;;;;21.96;47.82;100636.61;104302;1311;62154;-85
2022/09/30 07:12:27;;;;;;;;;;;;;;;21.95;47.91;100637.58;104315;1309;61982;-83
2022/09/30 07:14:52;;;;;;;;;;;;;;;21.95;47.88;100637.35;104369;1309;60499;-81
2022/09/30 07:17:18;;;;;;;;;;;;;;;21.97;47.95;100632.61;104262;1308;62038;-80
2022/09/30 07:19:43;;;;;;;;;;;;;;;22.00;47.92;100634.50;104231;1310;62196;-82
2022/09/30 07:22:28;;;;;;;;;;;;;;;22.02;47.85;100632.90;104086;1311;62123;-85
2022/09/30 07:24:57;;;;;;;;;;;;;;;22.05;47.82;100631.64;104216;1309;75474;-83
2022/09/30 07:27:26;;;;;;;;;;;;;;;22.07;47.73;100634.64;104333;1308;60932;-82
2022/09/30 07:29:51;;;;;;;;;;;;;;;22.10;47.76;100641.98;104289;1308;62169;-83
2022/09/30 07:32:18;;;;;;;;;;;;;;;22.12;47.65;100642.23;104265;1308;62074;-82
2022/09/30 07:34:44;;;;;;;;;;;;;;;22.13;47.66;100640.35;104293;1309;62265;-83
2022/09/30 07:37:11;;;;;;;;;;;;;;;22.14;47.61;100642.00;104301;1308;62204;-83
2022/09/30 07:39:37;;;;;;;;;;;;;;;22.15;47.60;100645.67;104410;1309;60935;-83
2022/09/30 07:42:03;;;;;;;;;;;;;;;22.16;47.57;100647.08;104240;1308;62114;-83
2022/09/30 07:44:28;;;;;;;;;;;;;;;22.17;47.63;100652.90;104267;1308;59899;-83
2022/09/30 07:46:54;;;;;;;;;;;;;;;22.18;47.53;100651.95;104377;1308;62243;-82
2022/09/30 07:49:24;;;;;;;;;;;;;;;22.19;47.53;100657.02;104253;1308;60523;-83
2022/09/30 07:51:50;;;;;;;;;;;;;;;22.20;47.61;100663.39;104230;1308;62201;-84
2022/09/30 07:54:17;;;;;;;;;;;;;;;22.21;47.52;100669.02;104375;1308;72876;-83
2022/09/30 07:56:43;;;;;;;;;;;;;;;22.23;47.47;100667.67;104304;1308;62117;-84
2022/09/30 07:59:09;;;;;;;;;;;;;;;22.25;47.43;100672.02;104254;1308;62054;-81
2022/09/30 08:01:34;;;;;;;;;;;;;;;22.25;47.40;100675.71;104294;1308;60378;-83
2022/09/30 08:04:01;;;;;;;;;;;;;;;22.27;47.40;100679.88;103675;1309;62116;-83
2022/09/30 08:06:28;;;;;;;;;;;;;;;22.27;47.55;100677.73;103891;1308;60924;-88
2022/09/30 08:08:54;;;;;;;;;;;;;;;22.28;47.59;100676.59;103905;1308;62146;-82
2022/09/30 08:11:20;;;;;;;;;;;;;;;22.32;47.78;100677.70;103985;1308;62095;-81
2022/09/30 08:13:49;;;;;;;;;;;;;;;22.35;47.87;100678.38;104266;1309;62199;-83
2022/09/30 08:16:15;;;;;;;;;;;;;;;22.35;47.87;100676.58;104262;1308;75410;-82
2022/09/30 08:18:40;;;;;;;;;;;;;;;22.36;47.71;100678.52;104259;1308;62200;-81
2022/09/30 08:21:06;;;;;;;;;;;;;;;22.36;47.86;100682.81;104298;1308;62078;-81
2022/09/30 08:23:32;;;;;;;;;;;;;;;22.36;47.84;100683.92;104404;1308;62112;-82
2022/09/30 08:26:04;;;;;;;;;;;;;;;22.35;47.86;100686.30;104415;1307;62211;-83
2022/09/30 08:28:32;;;;;;;;;;;;;;;22.36;47.93;100686.09;104290;1308;75974;-83
2022/09/30 08:31:05;;;;;;;;;;;;;;;22.35;47.88;100688.63;104382;1307;62060;-83
2022/09/30 08:33:30;;;;;;;;;;;;;;;22.35;47.91;100689.70;104315;1309;62280;-81
2022/09/30 08:36:00;;;;;;;;;;;;;;;22.35;47.93;100689.52;104263;1308;62173;-82
2022/09/30 08:38:25;;;;;;;;;;;;;;;22.35;47.87;100689.14;104555;1308;75642;-82
2022/09/30 08:41:11;;;;;;;;;;;;;;;22.35;47.90;100689.00;104312;1308;62088;-84
2022/09/30 08:43:39;;;;;;;;;;;;;;;22.35;47.87;100683.59;103951;1307;62273;-84
2022/09/30 08:46:07;;;;;;;;;;;;;;;22.36;48.01;100685.17;104400;1307;72858;-81
2022/09/30 08:48:33;;;;;;;;;;;;;;;22.36;48.07;100688.16;104171;1309;75101;-83
2022/09/30 08:51:19;;;;;;;;;;;;;;;22.37;48.31;100682.89;104329;1308;64496;-83
2022/09/30 08:53:45;;;;;;;;;;;;;;;22.38;48.41;100680.86;104082;1308;62132;-85
2022/09/30 08:56:12;;;;;;;;;;;;;;;22.38;48.58;100682.99;103853;1307;62711;-82
2022/09/30 08:58:38;;;;;;;;;;;;;;;22.38;48.61;100688.41;104435;1308;62852;-84
2022/09/30 09:01:13;;;;;;;;;;;;;;;22.37;48.55;100686.85;104201;1308;62069;-83
2022/09/30 09:03:40;;;;;;;;;;;;;;;22.39;48.69;100687.80;104239;1308;62121;-83
2022/09/30 09:06:17;;;;;;;;;;;;;;;22.43;48.87;100692.45;104319;1308;62071;-84
2022/09/30 09:08:50;;;;;;;;;;;;;;;22.48;48.96;100691.55;104471;1308;75620;-83
2022/09/30 09:11:16;;;;;;;;;;;;;;;22.52;49.12;100690.51;105057;1309;61440;-83
2022/09/30 09:13:53;;;;;;;;;;;;;;;22.56;49.05;100692.05;105181;1308;60102;-83
2022/09/30 09:16:19;;;;;;;;;;;;;;;22.58;48.73;100692.39;104323;1308;72647;-84
2022/09/30 09:18:45;;;;;;;;;;;;;;;22.60;48.43;100698.27;104441;1308;60893;-83
2022/09/30 09:21:19;;;;;;;;;;;;;;;22.64;48.12;100703.62;104463;1308;61951;-84
2022/09/30 09:23:45;;;;;;;;;;;;;;;22.65;47.90;100702.63;104474;1307;61966;-84
2022/09/30 09:26:11;;;;;;;;;;;;;;;22.65;47.72;100704.45;104447;1309;60641;-84
2022/09/30 09:28:50;;;;;;;;;;;;;;;22.65;47.54;100704.26;104441;1308;62078;-84
2022/09/30 09:31:16;;;;;;;;;;;;;;;22.64;47.68;100707.89;104352;1309;61339;-83
2022/09/30 09:33:43;;;;;;;;;;;;;;;22.64;47.76;100705.77;104235;1308;62101;-84
2022/09/30 09:36:14;;;;;;;;;;;;;;;22.64;47.71;100704.31;104300;1309;61940;-83
2022/09/30 09:38:57;;;;;;;;;;;;;;;22.64;47.64;100706.80;104389;1308;76634;-83
2022/09/30 09:41:32;;;;;;;;;;;;;;;22.64;47.65;100706.62;104441;1307;60529;-84
2022/09/30 09:44:16;;;;;;;;;;;;;;;22.63;47.85;100702.94;104311;1308;61993;-84
2022/09/30 09:46:46;;;;;;;;;;;;;;;22.62;47.99;100696.21;104369;1308;72790;-84
2022/09/30 09:49:12;;;;;;;;;;;;;;;22.62;48.06;100692.65;104463;1308;75605;-84
2022/09/30 09:51:38;;;;;;;;;;;;;;;22.62;48.21;100695.34;104314;1309;62204;-82
2022/09/30 09:54:04;;;;;;;;;;;;;;;22.64;48.06;100693.02;104417;1309;60555;-83
2022/09/30 09:56:29;;;;;;;;;;;;;;;22.65;48.02;100696.86;104033;1309;62122;-82
2022/09/30 09:59:11;;;;;;;;;;;;;;;22.65;48.11;100695.21;104252;1309;61040;-84
2022/09/30 10:01:41;;;;;;;;;;;;;;;22.65;48.13;100694.89;103858;1308;742898;-84
2022/09/30 10:04:25;;;;;;;;;;;;;;;22.66;48.21;100692.15;103641;1309;61945;-84
2022/09/30 10:07:12;;;;;;;;;;;;;;;22.68;48.36;100688.90;103533;1308;73459;-83
2022/09/30 10:09:38;;;;;;;;;;;;;;;22.68;48.41;100693.73;103880;1308;75663;-84
2022/09/30 10:12:07;;;;;;;;;;;;;;;22.68;48.52;100693.41;104342;1308;60956;-82
2022/09/30 10:14:35;;;;;;;;;;;;;;;22.67;48.43;100693.29;104584;1308;61963;-82
2022/09/30 10:17:03;;;;;;;;;;;;;;;22.66;48.52;100683.34;104402;1306;73645;-83
2022/09/30 10:19:29;;;;;;;;;;;;;;;22.65;48.60;100684.83;105253;1307;74779;-83
2022/09/30 10:22:16;;;;;;;;;;;;;;;22.65;48.45;100685.73;105201;1308;60398;-84
2022/09/30 10:24:42;;;;;;;;;;;;;;;22.66;48.40;100685.85;105140;1308;60044;-85
2022/09/30 10:27:27;;;;;;;;;;;;;;;22.67;48.33;100684.34;105227;1306;60479;-84
2022/09/30 10:29:53;;;;;;;;;;;;;;;22.69;48.32;100678.59;105016;1308;74527;-83
2022/09/30 10:32:18;;;;;;;;;;;;;;;22.70;48.30;100677.80;104073;1309;62121;-82
2022/09/30 10:34:44;;;;;;;;;;;;;;;22.71;48.22;100671.27;103845;1308;62104;-84
2022/09/30 10:37:12;;;;;;;;;;;;;;;22.71;48.16;100671.27;103958;1308;62196;-83
2022/09/30 10:39:38;;;;;;;;;;;;;;;22.71;48.07;100663.91;103578;1308;62145;-83
2022/09/30 10:42:07;;;;;;;;;;;;;;;22.72;48.02;100660.36;103763;1308;61987;-84
2022/09/30 10:44:36;;;;;;;;;;;;;;;22.74;47.89;100656.10;104344;1309;62120;-84
2022/09/30 10:47:01;;;;;;;;;;;;;;;22.75;47.92;100654.81;104672;1309;71902;-84
2022/09/30 10:49:35;;;;;;;;;;;;;;;22.76;47.79;100651.52;104405;1308;62162;-83
2022/09/30 10:52:00;;;;;;;;;;;;;;;22.76;47.74;100652.38;104369;1309;60784;-83
2022/09/30 10:54:43;;;;;;;;;;;;;;;22.76;47.69;100652.36;104408;1308;62076;-82
2022/09/30 10:57:15;;;;;;;;;;;;;;;22.79;47.70;100656.15;104178;1310;72736;-83
2022/09/30 10:59:41;;;;;;;;;;;;;;;22.80;47.57;100656.58;104251;1308;76448;-83
2022/09/30 11:02:06;;;;;;;;;;;;;;;22.80;47.51;100657.66;104459;1308;62079;-81
2022/09/30 11:04:58;;;;;;;;;;;;;;;22.81;47.57;100659.37;104411;1306;62257;-83
2022/09/30 11:07:24;;;;;;;;;;;;;;;22.81;47.63;100658.27;104401;1309;73784;-83
2022/09/30 11:09:52;;;;;;;;;;;;;;;22.82;47.65;100660.37;104404;1308;60508;-81
2022/09/30 11:12:22;;;;;;;;;;;;;;;22.83;47.49;100660.84;104347;1309;61032;-83
2022/09/30 11:15:06;;;;;;;;;;;;;;;22.83;47.54;100661.50;104409;1308;61881;-82
2022/09/30 11:17:46;;;;;;;;;;;;;;;22.84;47.49;100662.17;104372;1308;74040;-82
2022/09/30 11:20:11;;;;;;;;;;;;;;;22.85;47.43;100663.14;104248;1308;75708;-81
2022/09/30 11:22:56;;;;;;;;;;;;;;;22.85;47.34;100662.77;104358;1308;62226;-81
2022/09/30 11:25:41;;;;;;;;;;;;;;;22.85;47.35;100659.41;104575;1308;60589;-82
2022/09/30 11:28:14;;;;;;;;;;;;;;;22.84;47.37;100656.77;104512;1308;72883;-82
2022/09/30 11:30:40;;;;;;;;;;;;;;;22.84;47.35;100647.47;104494;1309;75592;-82
2022/09/30 11:33:08;;;;;;;;;;;;;;;22.84;47.32;100649.60;104362;1308;62194;-82
2022/09/30 11:35:34;;;;;;;;;;;;;;;22.83;47.30;100657.34;104252;1308;62081;-83
2022/09/30 11:38:15;;;;;;;;;;;;;;;22.82;47.36;100661.04;104320;1308;62126;-82
2022/09/30 11:40:59;;;;;;;;;;;;;;;22.82;47.38;100667.20;104306;1308;75453;-82
2022/09/30 11:43:32;;;;;;;;;;;;;;;22.81;47.30;100672.66;103864;1307;64444;-81
2022/09/30 11:46:17;;;;;;;;;;;;;;;22.81;47.21;100675.52;104331;1308;61997;-83
2022/09/30 11:49:06;;;;;;;;;;;;;;;22.80;47.23;100676.25;103906;1314;73963;-82
2022/09/30 11:51:52;;;;;;;;;;;;;;;22.81;47.13;100671.91;103771;1314;75663;-83
2022/09/30 11:54:36;;;;;;;;;;;;;;;22.83;47.15;100670.33;104001;1314;61268;-84
2022/09/30 11:57:01;;;;;;;;;;;;;;;22.86;47.21;100679.73;104000;1314;62182;-82
2022/09/30 11:59:29;;;;;;;;;;;;;;;22.87;47.22;100682.67;103990;1316;62070;-83
2022/09/30 12:01:57;;;;;;;;;;;;;;;22.88;47.14;100677.64;103853;1317;75758;-83
2022/09/30 12:04:37;;;;;;;;;;;;;;;22.88;47.08;100675.97;103840;1316;61954;-82
2022/09/30 12:07:06;;;;;;;;;;;;;;;22.89;46.96;100679.16;103884;1314;62487;-82
2022/09/30 12:09:45;;;;;;;;;;;;;;;22.88;46.96;100682.99;103891;1316;72944;-82
2022/09/30 12:12:13;;;;;;;;;;;;;;;22.87;46.89;100680.00;103634;1317;75259;-83
2022/09/30 12:14:41;;;;;;;;;;;;;;;22.86;46.88;100679.75;103747;1317;61983;-83
2022/09/30 12:17:09;;;;;;;;;;;;;;;22.85;46.72;100673.17;103921;1316;61473;-84
2022/09/30 12:19:37;;;;;;;;;;;;;;;22.87;46.64;100674.08;103665;1317;72611;-83
2022/09/30 12:22:34;;;;;;;;;;;;;;;22.89;46.59;100668.73;103772;1316;77066;-82
2022/09/30 12:25:00;;;;;;;;;;;;;;;22.90;46.30;100675.06;103424;1316;61986;-82
2022/09/30 12:27:32;;;;;;;;;;;;;;;22.93;46.44;100674.16;104242;1309;62062;-82
2022/09/30 12:30:19;;;;;;;;;;;;;;;22.94;46.28;100674.25;104544;1308;73710;-82
2022/09/30 12:33:16;;;;;;;;;;;;;;;22.94;46.20;100674.77;104396;1308;75737;-85
2022/09/30 12:35:45;;;;;;;;;;;;;;;22.94;46.12;100677.26;104484;1309;62081;-82
2022/09/30 12:38:25;;;;;;;;;;;;;;;22.95;46.02;100682.45;104423;1309;61989;-80